Time;durP1;ratioP1;P1;durP2;ratioP2;P2;SDS_P1;SDS_P2;PMS_P1;PMS_P2;Temp;Humidity;BMP_temperature;BMP_pressure;BME280_temperature;BME280_humidity;BME280_pressure;Samples;Min_cycle;Max_cycle;Signal;HPM_P1;HPM_P2
2022/07/31 00:00:43;;;;;;;17.92;6.05;;;22.10;99.90;;;;;;5054540;28;20020;-73
2022/07/31 00:03:10;;;;;;;15.30;7.38;;;21.80;99.90;;;;;;5072308;28;20136;-73
2022/07/31 00:05:35;;;;;;;19.58;8.30;;;21.80;99.90;;;;;;5054742;28;20066;-72
2022/07/31 00:08:01;;;;;;;13.73;7.45;;;21.70;99.90;;;;;;5072213;28;20032;-72
2022/07/31 00:10:28;;;;;;;15.52;7.60;;;21.70;99.90;;;;;;5070164;28;20062;-73
2022/07/31 00:12:53;;;;;;;14.85;8.55;;;21.50;99.90;;;;;;5070379;28;20069;-72
2022/07/31 00:15:20;;;;;;;16.60;7.55;;;21.70;99.90;;;;;;5072067;28;20036;-72
2022/07/31 00:17:46;;;;;;;10.90;6.53;;;21.30;99.90;;;;;;5071907;28;20017;-71
2022/07/31 00:20:15;;;;;;;10.88;5.63;;;21.20;99.90;;;;;;5075051;28;20035;-71
2022/07/31 00:22:46;;;;;;;8.45;6.63;;;21.40;99.90;;;;;;5081984;28;20032;-72
2022/07/31 00:25:13;;;;;;;12.73;5.20;;;21.40;99.90;;;;;;5072233;28;20074;-70
2022/07/31 00:27:40;;;;;;;8.18;5.50;;;21.00;99.90;;;;;;5071954;28;20481;-71
2022/07/31 00:30:07;;;;;;;10.88;5.45;;;20.90;99.90;;;;;;5071981;28;20528;-70
2022/07/31 00:32:32;;;;;;;9.80;5.20;;;21.10;99.90;;;;;;5072146;28;20024;-72
2022/07/31 00:34:58;;;;;;;9.73;5.78;;;21.10;99.90;;;;;;5072088;28;20039;-72
2022/07/31 00:37:24;;;;;;;8.98;5.47;;;20.90;99.90;;;;;;5071891;28;20028;-71
2022/07/31 00:39:50;;;;;;;7.82;4.97;;;20.90;99.90;;;;;;5072225;28;20120;-72
2022/07/31 00:42:17;;;;;;;8.15;4.32;;;20.90;99.90;;;;;;5070459;28;20064;-71
2022/07/31 00:44:43;;;;;;;15.63;4.80;;;21.00;99.90;;;;;;5070562;28;20035;-72
2022/07/31 00:47:08;;;;;;;7.82;4.85;;;20.70;99.90;;;;;;5071858;28;20032;-71
2022/07/31 00:49:35;;;;;;;8.15;4.38;;;21.00;99.90;;;;;;5055478;28;20086;-72
2022/07/31 00:52:01;;;;;;;8.50;4.82;;;20.90;99.90;;;;;;5075591;28;20481;-68
2022/07/31 00:54:27;;;;;;;9.07;4.88;;;21.00;99.90;;;;;;5075472;28;20023;-71
2022/07/31 00:56:52;;;;;;;10.20;4.47;;;21.00;99.90;;;;;;5075007;28;20039;-72
2022/07/31 00:59:18;;;;;;;9.68;4.55;;;20.70;99.90;;;;;;5073767;28;20029;-71
2022/07/31 01:01:44;;;;;;;8.50;4.30;;;20.60;99.90;;;;;;5074143;28;20055;-73
2022/07/31 01:04:11;;;;;;;7.60;4.30;;;20.80;99.90;;;;;;5073831;28;20157;-73
2022/07/31 01:06:37;;;;;;;10.00;4.22;;;20.70;99.90;;;;;;5057107;28;20024;-73
2022/07/31 01:09:03;;;;;;;6.72;4.35;;;20.70;99.90;;;;;;5075165;28;20024;-71
2022/07/31 01:12:23;;;;;;;9.27;4.10;;;20.50;99.90;;;;;;5073464;28;20024;-73
2022/07/31 01:14:56;;;;;;;9.98;3.75;;;20.20;99.90;;;;;;5070057;28;20090;-73
2022/07/31 01:17:23;;;;;;;4.82;3.70;;;20.30;99.90;;;;;;5073944;28;20028;-72
2022/07/31 01:19:50;;;;;;;7.65;3.17;;;20.20;99.90;;;;;;5074840;28;20036;-73
2022/07/31 01:22:34;;;;;;;6.18;3.95;;;20.40;99.90;;;;;;5057125;28;20038;-73
2022/07/31 01:25:16;;;;;;;7.22;3.97;;;20.40;99.90;;;;;;5074299;28;20522;-71
2022/07/31 01:28:05;;;;;;;7.47;3.80;;;20.70;99.90;;;;;;5073713;28;20033;-72
2022/07/31 01:30:37;;;;;;;9.43;4.13;;;20.60;99.90;;;;;;5057187;28;20048;-71
2022/07/31 01:33:12;;;;;;;9.00;3.50;;;20.10;99.90;;;;;;5067356;28;20096;-72
2022/07/31 01:35:46;;;;;;;13.60;3.17;;;19.90;99.90;;;;;;5073334;28;20387;-71
2022/07/31 01:38:28;;;;;;;5.80;2.85;;;19.80;99.90;;;;;;5056607;28;20071;-71
2022/07/31 01:41:01;;;;;;;5.72;3.03;;;19.70;99.90;;;;;;5070092;28;20020;-72
2022/07/31 01:43:39;;;;;;;7.07;2.80;;;19.80;99.90;;;;;;5063752;28;20047;-72
2022/07/31 01:46:10;;;;;;;6.03;2.80;;;20.00;99.90;;;;;;5073269;28;20024;-72
2022/07/31 01:48:37;;;;;;;4.90;3.00;;;20.10;99.90;;;;;;5056552;28;20032;-68
2022/07/31 01:51:05;;;;;;;7.15;3.28;;;20.00;99.90;;;;;;5056294;28;20017;-73
2022/07/31 01:53:33;;;;;;;3.25;2.75;;;20.00;99.90;;;;;;5072549;28;20037;-72
2022/07/31 01:56:00;;;;;;;5.30;3.13;;;20.10;99.90;;;;;;5072570;28;20542;-67
2022/07/31 01:58:28;;;;;;;6.40;3.13;;;20.20;99.90;;;;;;5056388;28;20052;-72
2022/07/31 02:01:02;;;;;;;6.47;3.17;;;19.90;99.90;;;;;;5072392;28;20017;-72
2022/07/31 02:03:29;;;;;;;5.32;3.25;;;19.80;99.90;;;;;;5056230;28;20032;-72
2022/07/31 02:05:56;;;;;;;5.05;3.13;;;19.60;99.90;;;;;;5073722;28;20017;-72
2022/07/31 02:08:23;;;;;;;6.57;3.38;;;19.60;99.90;;;;;;5055917;28;20106;-72
2022/07/31 02:10:50;;;;;;;7.30;3.55;;;19.70;99.90;;;;;;5055878;28;20028;-73
2022/07/31 02:13:17;;;;;;;4.43;3.05;;;19.60;99.90;;;;;;5072662;28;20028;-72
2022/07/31 02:15:45;;;;;;;7.72;3.28;;;19.60;99.90;;;;;;5072397;28;20080;-72
2022/07/31 02:18:14;;;;;;;9.10;3.17;;;19.70;99.90;;;;;;5055862;28;20064;-72
2022/07/31 02:21:03;;;;;;;5.10;3.30;;;19.50;99.90;;;;;;5067666;28;20037;-72
2022/07/31 02:23:29;;;;;;;7.38;3.00;;;19.50;99.90;;;;;;5072274;28;20028;-71
2022/07/31 02:25:56;;;;;;;6.03;3.10;;;19.60;99.90;;;;;;5072281;28;20025;-69
2022/07/31 02:28:24;;;;;;;4.80;3.33;;;19.30;99.90;;;;;;5072354;28;20051;-72
2022/07/31 02:30:52;;;;;;;6.55;3.25;;;19.40;99.90;;;;;;5072666;28;20035;-71
2022/07/31 02:33:22;;;;;;;10.05;3.05;;;19.40;99.90;;;;;;5073332;28;20532;-71
2022/07/31 02:35:54;;;;;;;8.90;3.50;;;19.40;99.90;;;;;;5073220;28;20040;-69
2022/07/31 02:38:22;;;;;;;5.85;2.80;;;19.30;99.90;;;;;;5071840;28;20481;-70
2022/07/31 02:40:52;;;;;;;6.25;3.25;;;19.30;99.90;;;;;;5072166;28;20473;-69
2022/07/31 02:43:19;;;;;;;4.40;2.90;;;19.20;99.90;;;;;;5071991;28;20169;-66
2022/07/31 02:45:45;;;;;;;5.80;3.30;;;19.40;99.90;;;;;;5071986;28;20098;-72
2022/07/31 02:48:11;;;;;;;9.95;3.25;;;19.10;99.90;;;;;;5072008;28;20418;-72
2022/07/31 02:50:42;;;;;;;8.43;3.30;;;19.00;99.90;;;;;;5072144;28;20025;-71
2022/07/31 02:53:08;;;;;;;5.47;3.13;;;19.10;99.90;;;;;;5073397;28;20020;-72
2022/07/31 02:55:34;;;;;;;10.98;3.38;;;19.20;99.90;;;;;;5054896;28;20077;-72
2022/07/31 02:58:02;;;;;;;5.15;3.17;;;19.10;99.90;;;;;;5071818;28;20028;-71
2022/07/31 03:00:29;;;;;;;7.63;3.60;;;19.10;99.90;;;;;;5071751;28;20024;-72
2022/07/31 03:02:56;;;;;;;7.13;3.47;;;18.90;99.90;;;;;;5055234;28;20036;-70
2022/07/31 03:05:23;;;;;;;9.30;3.25;;;19.00;99.90;;;;;;5071758;28;20025;-72
2022/07/31 03:07:49;;;;;;;8.85;3.10;;;19.10;99.90;;;;;;5058948;28;20039;-73
2022/07/31 03:10:15;;;;;;;7.47;3.17;;;19.30;99.90;;;;;;5055017;28;20028;-73
2022/07/31 03:12:54;;;;;;;7.38;3.50;;;19.30;99.90;;;;;;5054116;28;20017;-71
2022/07/31 03:15:24;;;;;;;10.77;4.25;;;19.10;99.90;;;;;;5054858;28;20032;-73
2022/07/31 03:17:52;;;;;;;4.50;3.40;;;19.00;99.90;;;;;;5071461;28;20025;-72
2022/07/31 03:20:25;;;;;;;11.20;3.33;;;19.00;99.90;;;;;;5071462;28;20025;-72
2022/07/31 03:22:51;;;;;;;5.18;3.40;;;19.10;99.90;;;;;;5054559;28;20165;-69
2022/07/31 03:25:17;;;;;;;9.98;3.75;;;19.20;99.90;;;;;;5071741;28;20021;-71
2022/07/31 03:27:46;;;;;;;7.22;3.55;;;19.00;99.90;;;;;;5072683;28;20193;-72
2022/07/31 03:30:23;;;;;;;9.32;3.53;;;18.90;99.90;;;;;;5072627;28;20029;-72
2022/07/31 03:32:54;;;;;;;5.72;3.17;;;18.80;99.90;;;;;;5071434;28;20029;-69
2022/07/31 03:35:20;;;;;;;5.78;3.45;;;18.90;99.90;;;;;;5071099;28;20016;-72
2022/07/31 03:37:46;;;;;;;8.02;3.60;;;19.10;99.90;;;;;;5054463;28;20134;-72
2022/07/31 03:40:12;;;;;;;8.57;3.85;;;19.10;99.90;;;;;;5071265;28;20124;-69
2022/07/31 03:42:39;;;;;;;5.97;3.67;;;19.00;99.90;;;;;;5071254;28;20493;-71
2022/07/31 03:45:07;;;;;;;8.27;4.00;;;18.90;99.90;;;;;;5054648;28;20035;-72
2022/07/31 03:47:34;;;;;;;8.18;3.92;;;18.90;99.90;;;;;;5071154;28;20029;-71
2022/07/31 03:50:01;;;;;;;4.45;3.30;;;19.10;99.90;;;;;;5071193;28;20052;-71
2022/07/31 03:52:28;;;;;;;8.50;3.83;;;19.30;99.90;;;;;;5071389;28;20047;-73
2022/07/31 03:54:57;;;;;;;5.90;3.90;;;19.00;99.90;;;;;;5054703;28;20025;-71
2022/07/31 03:57:26;;;;;;;7.90;3.10;;;18.90;99.90;;;;;;5072157;28;20506;-71
2022/07/31 03:59:56;;;;;;;7.72;3.97;;;19.00;99.90;;;;;;5072717;28;20407;-72
2022/07/31 04:02:25;;;;;;;7.18;3.53;;;19.00;99.90;;;;;;5054239;28;20392;-72
2022/07/31 04:04:58;;;;;;;5.90;3.50;;;19.00;99.90;;;;;;5070959;28;20031;-71
2022/07/31 04:07:24;;;;;;;8.02;3.78;;;18.80;99.90;;;;;;5053809;28;20028;-70
2022/07/31 04:09:50;;;;;;;5.50;3.60;;;18.90;99.90;;;;;;5071215;28;20063;-69
2022/07/31 04:12:16;;;;;;;4.63;3.63;;;18.80;99.90;;;;;;5054371;28;20389;-71
2022/07/31 04:14:42;;;;;;;12.15;4.88;;;18.70;99.90;;;;;;5070650;28;20064;-67
2022/07/31 04:17:08;;;;;;;11.43;4.20;;;18.80;99.90;;;;;;5053648;28;20024;-72
2022/07/31 04:19:35;;;;;;;9.25;4.13;;;18.70;99.90;;;;;;5069990;28;20073;-71
2022/07/31 04:22:01;;;;;;;8.05;4.53;;;18.80;99.90;;;;;;5072369;28;20028;-72
2022/07/31 04:24:27;;;;;;;9.82;4.57;;;18.90;99.90;;;;;;5074865;28;20031;-72
2022/07/31 04:27:05;;;;;;;6.13;3.75;;;18.80;99.90;;;;;;5066433;28;20013;-67
2022/07/31 04:29:41;;;;;;;7.13;4.28;;;18.60;99.90;;;;;;5078577;28;20099;-69
2022/07/31 04:32:07;;;;;;;6.20;4.28;;;18.60;99.90;;;;;;5057978;28;20431;-69
2022/07/31 04:34:42;;;;;;;9.95;3.85;;;18.70;99.90;;;;;;5057707;28;20082;-72
2022/07/31 04:37:08;;;;;;;7.32;3.50;;;18.60;99.90;;;;;;5057581;28;20021;-72
2022/07/31 04:39:34;;;;;;;7.18;3.95;;;18.70;99.90;;;;;;5074503;28;20032;-72
2022/07/31 04:42:00;;;;;;;6.03;4.22;;;18.50;99.90;;;;;;5074223;28;20047;-71
2022/07/31 04:44:27;;;;;;;9.18;4.10;;;18.50;99.90;;;;;;5074397;28;20029;-71
2022/07/31 04:47:03;;;;;;;6.55;3.72;;;18.70;99.90;;;;;;5074138;28;20028;-72
2022/07/31 04:49:33;;;;;;;7.85;4.22;;;18.60;99.90;;;;;;5074049;28;20024;-72
2022/07/31 04:52:00;;;;;;;10.57;3.90;;;18.70;99.90;;;;;;5057706;28;20090;-72
2022/07/31 04:54:27;;;;;;;8.73;3.85;;;18.80;99.90;;;;;;5061942;28;20023;-72
2022/07/31 04:56:54;;;;;;;5.68;3.72;;;18.80;99.90;;;;;;5073997;28;20503;-72
2022/07/31 04:59:22;;;;;;;9.43;4.30;;;18.90;99.90;;;;;;5074207;28;20025;-72
2022/07/31 05:01:49;;;;;;;10.65;5.07;;;18.90;99.90;;;;;;5074200;28;20036;-71
2022/07/31 05:04:19;;;;;;;5.72;3.50;;;18.90;99.90;;;;;;5056878;28;20021;-71
2022/07/31 05:06:48;;;;;;;11.98;5.00;;;18.90;99.90;;;;;;5074052;28;20079;-71
2022/07/31 05:09:16;;;;;;;7.88;4.28;;;18.90;99.90;;;;;;5057038;28;20027;-72
2022/07/31 05:11:42;;;;;;;8.95;4.25;;;18.80;99.90;;;;;;5074077;28;20028;-72
2022/07/31 05:14:10;;;;;;;12.57;4.57;;;18.80;99.90;;;;;;5073619;28;20033;-72
2022/07/31 05:16:36;;;;;;;7.35;4.00;;;19.00;99.90;;;;;;5073510;28;20481;-71
2022/07/31 05:19:04;;;;;;;4.63;4.05;;;19.00;99.90;;;;;;5073653;28;20024;-71
2022/07/31 05:22:08;;;;;;;12.45;4.28;;;19.00;99.90;;;;;;5013229;28;20014;-72
2022/07/31 05:24:56;;;;;;;9.02;4.57;;;19.20;99.90;;;;;;5011413;28;20038;-72
2022/07/31 05:27:23;;;;;;;8.07;3.90;;;19.30;99.90;;;;;;5031023;28;20131;-71
2022/07/31 05:29:48;;;;;;;10.48;4.35;;;19.10;99.90;;;;;;5056842;28;20052;-71
2022/07/31 05:32:15;;;;;;;10.68;4.05;;;18.90;99.90;;;;;;5073222;28;20245;-72
2022/07/31 05:34:41;;;;;;;9.93;4.53;;;19.00;99.90;;;;;;5072584;28;20066;-72
2022/07/31 05:37:06;;;;;;;13.35;4.22;;;19.10;99.90;;;;;;5073327;28;20385;-72
2022/07/31 05:39:35;;;;;;;8.30;4.05;;;19.40;99.90;;;;;;5073170;28;20028;-73
2022/07/31 05:42:19;;;;;;;7.97;4.00;;;19.10;99.90;;;;;;5060937;28;20078;-72
2022/07/31 05:45:04;;;;;;;7.28;4.07;;;19.20;99.90;;;;;;5074191;28;20036;-72
2022/07/31 05:47:30;;;;;;;13.30;5.00;;;19.10;99.90;;;;;;5074075;28;20025;-72
2022/07/31 05:49:56;;;;;;;9.40;4.85;;;19.00;99.90;;;;;;5073187;28;20447;-72
2022/07/31 05:52:21;;;;;;;9.45;4.82;;;19.20;99.90;;;;;;5073314;28;20609;-71
2022/07/31 05:55:05;;;;;;;8.68;4.57;;;19.30;99.90;;;;;;5072891;28;20039;-71
2022/07/31 05:57:55;;;;;;;12.25;4.63;;;19.10;99.90;;;;;;5061501;28;20107;-72
2022/07/31 06:00:21;;;;;;;7.82;4.60;;;19.10;99.90;;;;;;5073688;28;20120;-72
2022/07/31 06:02:47;;;;;;;10.73;4.28;;;19.30;99.90;;;;;;5073076;28;20501;-72
2022/07/31 06:05:49;;;;;;;8.77;4.30;;;19.40;99.90;;;;;;5073708;28;20052;-71
2022/07/31 06:08:15;;;;;;;12.02;5.07;;;19.60;99.90;;;;;;5072902;28;20024;-72
2022/07/31 06:10:45;;;;;;;8.18;4.13;;;19.70;99.90;;;;;;5055797;28;20060;-72
2022/07/31 06:13:12;;;;;;;10.13;4.85;;;19.40;99.90;;;;;;5072252;28;20035;-70
2022/07/31 06:15:38;;;;;;;8.85;4.38;;;19.30;99.90;;;;;;5055602;28;20031;-72
2022/07/31 06:18:04;;;;;;;8.93;4.40;;;19.60;99.90;;;;;;5072605;28;20063;-70
2022/07/31 06:20:30;;;;;;;6.55;4.50;;;19.60;99.90;;;;;;5072265;28;20123;-68
2022/07/31 06:22:57;;;;;;;9.50;4.78;;;19.50;99.90;;;;;;5072589;28;20131;-71
2022/07/31 06:25:27;;;;;;;8.40;4.90;;;19.30;99.90;;;;;;5073158;28;20096;-71
2022/07/31 06:27:53;;;;;;;7.43;5.38;;;19.40;99.90;;;;;;5065553;28;20024;-74
2022/07/31 06:30:19;;;;;;;13.00;5.90;;;19.70;99.90;;;;;;5057107;28;20016;-72
2022/07/31 06:32:47;;;;;;;9.80;5.53;;;19.90;99.90;;;;;;5054510;28;20029;-74
2022/07/31 06:35:13;;;;;;;12.10;5.78;;;19.90;99.90;;;;;;5084739;28;20013;-73
2022/07/31 06:37:59;;;;;;;9.85;5.05;;;19.80;99.90;;;;;;5078988;28;20042;-74
2022/07/31 06:40:28;;;;;;;9.38;5.78;;;19.90;99.90;;;;;;5074528;28;20039;-67
2022/07/31 06:43:21;;;;;;;17.73;5.97;;;20.10;99.90;;;;;;5057288;28;20028;-72
2022/07/31 06:46:27;;;;;;;8.73;5.82;;;20.00;99.90;;;;;;5043244;28;20028;-71
2022/07/31 06:49:30;;;;;;;16.23;5.07;;;20.10;99.90;;;;;;5063650;28;20049;-71
2022/07/31 06:51:56;;;;;;;10.82;5.60;;;20.20;99.90;;;;;;5052564;28;20032;-73
2022/07/31 06:54:22;;;;;;;9.50;5.22;;;20.10;99.90;;;;;;5055563;28;20425;-71
2022/07/31 06:56:48;;;;;;;18.02;6.43;;;19.90;99.90;;;;;;5064317;28;20115;-69
2022/07/31 06:59:14;;;;;;;9.68;5.43;;;19.90;99.90;;;;;;5052930;28;20106;-70
2022/07/31 07:01:40;;;;;;;15.02;5.60;;;20.00;99.90;;;;;;5063262;28;20385;-74
2022/07/31 07:04:05;;;;;;;12.63;5.30;;;20.20;99.90;;;;;;5068314;28;20033;-71
2022/07/31 07:06:31;;;;;;;9.77;5.95;;;20.50;99.90;;;;;;5053066;28;20024;-73
2022/07/31 07:08:57;;;;;;;11.15;5.22;;;20.20;99.90;;;;;;5068403;28;20443;-68
2022/07/31 07:11:24;;;;;;;9.75;5.60;;;20.20;99.90;;;;;;5054191;28;20055;-73
2022/07/31 07:13:50;;;;;;;15.30;6.25;;;20.10;99.90;;;;;;5051785;28;20060;-73
2022/07/31 07:16:17;;;;;;;10.55;5.85;;;20.00;99.90;;;;;;5070257;28;20023;-75
2022/07/31 07:18:43;;;;;;;11.13;5.90;;;20.00;99.90;;;;;;5070428;28;20488;-73
2022/07/31 07:21:10;;;;;;;13.77;5.45;;;20.30;99.90;;;;;;5053748;28;20055;-70
2022/07/31 07:23:36;;;;;;;16.23;5.93;;;20.40;99.90;;;;;;5053225;28;20064;-73
2022/07/31 07:26:22;;;;;;;11.18;5.78;;;20.30;99.90;;;;;;5070542;28;20033;-71
2022/07/31 07:28:48;;;;;;;8.38;5.97;;;20.60;99.90;;;;;;5059899;28;20051;-74
2022/07/31 07:31:14;;;;;;;11.60;5.63;;;20.80;99.90;;;;;;5058711;28;20052;-71
2022/07/31 07:33:40;;;;;;;11.70;5.32;;;21.10;99.90;;;;;;5073768;28;20024;-72
2022/07/31 07:36:05;;;;;;;9.43;5.22;;;21.00;99.90;;;;;;5061345;28;20115;-73
2022/07/31 07:38:31;;;;;;;13.88;5.82;;;20.60;99.90;;;;;;5081568;28;20113;-72
2022/07/31 07:40:57;;;;;;;12.00;5.72;;;20.50;99.90;;;;;;5055878;28;20020;-71
2022/07/31 07:43:23;;;;;;;15.77;5.90;;;20.70;99.90;;;;;;5067121;28;20090;-69
2022/07/31 07:45:49;;;;;;;18.05;5.35;;;20.60;99.90;;;;;;5058911;28;20054;-73
2022/07/31 07:48:15;;;;;;;11.10;5.50;;;20.80;99.90;;;;;;5068812;28;20068;-72
2022/07/31 07:51:01;;;;;;;9.90;5.95;;;20.80;99.90;;;;;;5070065;28;20070;-72
2022/07/31 07:53:29;;;;;;;11.18;5.63;;;21.00;99.90;;;;;;5071565;28;20020;-71
2022/07/31 07:56:27;;;;;;;11.13;6.30;;;20.90;99.90;;;;;;5068368;28;20032;-73
2022/07/31 07:59:13;;;;;;;13.48;5.18;;;21.00;99.90;;;;;;5059387;28;20024;-71
2022/07/31 08:01:57;;;;;;;12.68;4.82;;;21.30;99.90;;;;;;5075705;28;20527;-71
2022/07/31 08:04:28;;;;;;;11.60;4.90;;;21.90;99.90;;;;;;5057928;28;20027;-71
2022/07/31 08:06:54;;;;;;;6.82;4.20;;;22.10;99.90;;;;;;5075639;28;20111;-69
2022/07/31 08:09:24;;;;;;;7.18;4.15;;;22.40;99.90;;;;;;5060069;28;20025;-71
2022/07/31 08:12:13;;;;;;;14.70;4.50;;;22.50;99.90;;;;;;5066187;28;20036;-67
2022/07/31 08:15:03;;;;;;;11.35;4.57;;;22.60;99.90;;;;;;5034077;28;20041;-69
2022/07/31 08:17:47;;;;;;;8.73;4.20;;;22.10;99.90;;;;;;5071528;28;20063;-69
2022/07/31 08:20:13;;;;;;;10.43;4.97;;;22.00;99.90;;;;;;5075024;28;20365;-68
2022/07/31 08:22:39;;;;;;;9.48;4.30;;;21.80;99.90;;;;;;5074619;28;20043;-69
2022/07/31 08:25:05;;;;;;;10.82;4.35;;;21.90;99.90;;;;;;5071541;28;20052;-68
2022/07/31 08:27:31;;;;;;;8.55;4.38;;;22.20;99.90;;;;;;5057915;28;20029;-70
2022/07/31 08:30:00;;;;;;;9.85;4.65;;;22.70;99.90;;;;;;5072874;28;20032;-70
2022/07/31 08:32:28;;;;;;;10.25;4.47;;;22.70;99.90;;;;;;5072233;28;20029;-71
2022/07/31 08:34:59;;;;;;;8.23;4.93;;;22.90;99.90;;;;;;5075550;28;20142;-69
2022/07/31 08:37:25;;;;;;;6.88;4.35;;;22.70;99.90;;;;;;5056844;28;20070;-69
2022/07/31 08:39:51;;;;;;;10.65;4.28;;;23.00;99.90;;;;;;5057135;28;20430;-69
2022/07/31 08:42:18;;;;;;;16.23;4.30;;;22.90;99.90;;;;;;5075639;28;20033;-70
2022/07/31 08:44:44;;;;;;;8.27;4.20;;;22.80;99.90;;;;;;5075184;28;20028;-71
2022/07/31 08:47:15;;;;;;;9.07;4.53;;;22.60;99.90;;;;;;5057278;28;20389;-67
2022/07/31 08:49:43;;;;;;;8.75;4.13;;;23.00;99.90;;;;;;5057225;28;20032;-71
2022/07/31 08:52:15;;;;;;;6.47;4.15;;;22.80;99.90;;;;;;5075188;28;20095;-70
2022/07/31 08:55:04;;;;;;;7.15;3.83;;;23.20;99.90;;;;;;5074498;28;20042;-70
2022/07/31 08:57:30;;;;;;;6.10;3.77;;;23.00;99.90;;;;;;5057236;28;20028;-70
2022/07/31 08:59:56;;;;;;;8.23;3.15;;;23.00;99.90;;;;;;5057096;28;20480;-69
2022/07/31 09:02:22;;;;;;;6.25;4.07;;;23.40;99.90;;;;;;5056902;28;20032;-71
2022/07/31 09:05:12;;;;;;;7.30;3.75;;;22.90;99.90;;;;;;5058864;28;20052;-70
2022/07/31 09:07:39;;;;;;;7.18;4.18;;;23.00;99.90;;;;;;5056938;28;20107;-70
2022/07/31 09:10:26;;;;;;;5.55;3.58;;;23.00;99.90;;;;;;5055508;28;20086;-70
2022/07/31 09:12:54;;;;;;;7.90;4.00;;;23.30;99.90;;;;;;5056632;28;20488;-71
2022/07/31 09:15:24;;;;;;;9.10;3.80;;;23.70;99.90;;;;;;5056916;28;20027;-68
2022/07/31 09:17:50;;;;;;;7.30;3.70;;;23.50;99.90;;;;;;5074603;28;20020;-69
2022/07/31 09:20:19;;;;;;;6.97;4.43;;;23.60;99.90;;;;;;5056274;28;20436;-70
2022/07/31 09:22:46;;;;;;;6.68;3.83;;;23.60;99.90;;;;;;5053365;28;20047;-69
2022/07/31 09:25:17;;;;;;;6.22;3.90;;;23.20;99.90;;;;;;5071956;28;20090;-70
2022/07/31 09:27:44;;;;;;;9.32;3.85;;;23.30;99.90;;;;;;5058790;28;20028;-68
2022/07/31 09:30:10;;;;;;;6.45;3.85;;;23.20;99.90;;;;;;5056441;28;20032;-69
2022/07/31 09:32:56;;;;;;;8.48;3.70;;;23.10;99.90;;;;;;5074956;28;20028;-70
2022/07/31 09:35:51;;;;;;;6.30;4.00;;;23.60;99.90;;;;;;5060970;28;20037;-70
2022/07/31 09:38:19;;;;;;;7.90;4.10;;;23.80;99.90;;;;;;5056469;28;20086;-70
2022/07/31 09:41:13;;;;;;;8.30;3.80;;;23.30;99.90;;;;;;5051873;28;20086;-67
2022/07/31 09:43:56;;;;;;;7.25;4.07;;;23.20;99.90;;;;;;5073696;28;20602;-69
2022/07/31 09:46:22;;;;;;;8.52;4.53;;;23.40;99.90;;;;;;5057312;28;20411;-67
2022/07/31 09:48:54;;;;;;;8.95;4.25;;;22.90;99.90;;;;;;5073366;28;20023;-70
2022/07/31 09:51:21;;;;;;;8.18;5.22;;;22.80;99.90;;;;;;5057234;28;20029;-71
2022/07/31 09:53:52;;;;;;;11.38;4.45;;;23.10;99.90;;;;;;5056880;28;20447;-71
2022/07/31 09:56:37;;;;;;;7.47;4.18;;;23.20;99.90;;;;;;5072843;28;20041;-71
2022/07/31 09:59:05;;;;;;;12.52;4.90;;;23.30;99.90;;;;;;5073258;28;20389;-68
2022/07/31 10:01:35;;;;;;;5.07;3.78;;;23.30;99.90;;;;;;5056086;28;20381;-71
2022/07/31 10:04:04;;;;;;;7.05;3.83;;;23.50;99.90;;;;;;5057423;28;20546;-71
2022/07/31 10:06:33;;;;;;;11.82;4.70;;;23.30;99.90;;;;;;5070258;28;20104;-69
2022/07/31 10:09:02;;;;;;;12.38;4.35;;;23.30;99.90;;;;;;5073006;28;20067;-71
2022/07/31 10:11:54;;;;;;;6.10;3.85;;;23.50;99.90;;;;;;5043334;28;20071;-69
2022/07/31 10:14:26;;;;;;;9.40;4.45;;;23.60;99.90;;;;;;5072566;28;20042;-70
2022/07/31 10:16:57;;;;;;;9.73;4.25;;;23.80;99.90;;;;;;5070777;28;20124;-71
2022/07/31 10:19:37;;;;;;;9.10;4.45;;;23.60;99.90;;;;;;5070206;28;20086;-71
2022/07/31 10:22:42;;;;;;;9.05;4.25;;;23.40;99.90;;;;;;5047783;28;20123;-71
2022/07/31 10:25:12;;;;;;;8.40;3.72;;;23.60;99.90;;;;;;5071322;28;20033;-70
2022/07/31 10:27:39;;;;;;;8.60;4.20;;;23.70;99.90;;;;;;5054641;28;20099;-71
2022/07/31 10:30:09;;;;;;;7.25;3.42;;;23.70;99.90;;;;;;5055310;28;20123;-71
2022/07/31 10:32:42;;;;;;;11.18;3.30;;;23.60;99.90;;;;;;5055300;28;20078;-66
2022/07/31 10:36:06;;;;;;;9.45;3.38;;;24.00;99.90;;;;;;5038402;28;20021;-71
2022/07/31 10:39:04;;;;;;;8.52;3.85;;;24.10;99.90;;;;;;5070161;28;20029;-69
2022/07/31 10:42:05;;;;;;;10.95;4.18;;;23.90;99.90;;;;;;5070997;28;20053;-70
2022/07/31 10:44:36;;;;;;;8.18;4.07;;;23.60;99.90;;;;;;5068894;28;20077;-71
2022/07/31 10:47:28;;;;;;;8.38;3.88;;;23.60;99.90;;;;;;5057837;28;20381;-70
2022/07/31 10:50:01;;;;;;;7.05;3.75;;;23.30;99.90;;;;;;5056655;28;20050;-70
2022/07/31 10:52:47;;;;;;;7.82;3.42;;;23.60;99.90;;;;;;5072440;28;20078;-70
2022/07/31 10:55:26;;;;;;;7.45;3.38;;;23.80;99.90;;;;;;5072032;28;20033;-68
2022/07/31 10:58:20;;;;;;;8.25;4.10;;;23.90;99.90;;;;;;5055688;28;20094;-71
2022/07/31 11:01:11;;;;;;;8.85;3.70;;;23.70;99.90;;;;;;5079009;28;20067;-68
2022/07/31 11:04:00;;;;;;;9.80;3.25;;;24.10;99.90;;;;;;5069886;28;20483;-66
2022/07/31 11:06:43;;;;;;;6.72;3.15;;;24.10;99.90;;;;;;5054189;28;20035;-68
2022/07/31 11:09:41;;;;;;;10.13;3.30;;;24.10;99.90;;;;;;5060250;28;20044;-69
2022/07/31 11:12:25;;;;;;;6.25;2.63;;;24.80;99.90;;;;;;5081971;28;20039;-69
2022/07/31 11:15:24;;;;;;;9.15;3.28;;;24.70;99.90;;;;;;5060534;28;20043;-68
2022/07/31 11:18:16;;;;;;;4.90;2.90;;;24.90;99.90;;;;;;5070879;28;20090;-67
2022/07/31 11:20:57;;;;;;;7.68;3.05;;;24.30;99.90;;;;;;5070149;28;20028;-69
2022/07/31 11:23:28;;;;;;;7.50;3.45;;;24.30;99.90;;;;;;5070603;28;20032;-68
2022/07/31 11:25:57;;;;;;;;;;;24.30;99.90;;;;;;5054190;28;20021;-70
2022/07/31 11:28:25;;;;;;;7.90;2.55;;;24.80;99.90;;;;;;5066945;28;20272;-68
2022/07/31 11:31:01;;;;;;;16.30;2.88;;;24.90;99.90;;;;;;5059273;28;20032;-70
2022/07/31 11:33:37;;;;;;;5.95;2.63;;;24.80;99.90;;;;;;5067150;28;20125;-66
2022/07/31 11:36:22;;;;;;;4.65;1.70;;;25.20;99.90;;;;;;5063513;28;20017;-70
2022/07/31 11:38:50;;;;;;;7.82;2.20;;;25.10;99.90;;;;;;5045463;28;20060;-70
2022/07/31 11:41:17;;;;;;;3.42;2.20;;;24.90;99.90;;;;;;5073646;28;20020;-69
2022/07/31 11:43:45;;;;;;;3.50;1.85;;;24.50;99.90;;;;;;5072437;28;20036;-70
2022/07/31 11:46:18;;;;;;;5.13;1.70;;;24.40;99.90;;;;;;5053451;28;20393;-69
2022/07/31 11:48:44;;;;;;;5.25;2.30;;;24.40;99.90;;;;;;5054182;28;20028;-68
2022/07/31 11:51:17;;;;;;;4.57;1.85;;;24.70;99.90;;;;;;5074599;28;20362;-71
2022/07/31 11:53:43;;;;;;;6.00;2.05;;;25.40;99.90;;;;;;5072848;28;20024;-70
2022/07/31 11:56:08;;;;;;;5.45;1.70;;;25.50;99.90;;;;;;5072111;28;20121;-69
2022/07/31 11:58:35;;;;;;;5.03;2.10;;;25.30;99.90;;;;;;5072563;28;20350;-67
2022/07/31 12:01:03;;;;;;;5.40;1.58;;;24.90;99.90;;;;;;5073292;28;20074;-69
2022/07/31 12:03:35;;;;;;;7.05;1.95;;;24.90;99.90;;;;;;5072536;28;20041;-70
2022/07/31 12:06:02;;;;;;;5.15;1.90;;;24.90;99.90;;;;;;5052210;28;20028;-66
2022/07/31 12:08:29;;;;;;;9.13;1.80;;;24.70;99.90;;;;;;5071638;28;20554;-68
2022/07/31 12:10:56;;;;;;;2.83;1.75;;;24.80;99.90;;;;;;5071202;28;20029;-68
2022/07/31 12:13:24;;;;;;;2.70;1.50;;;24.90;99.90;;;;;;5068819;28;20130;-67
2022/07/31 12:15:53;;;;;;;4.80;1.92;;;24.70;99.90;;;;;;5069988;28;20028;-69
2022/07/31 12:18:19;;;;;;;3.00;1.65;;;24.60;99.90;;;;;;5072013;28;20112;-67
2022/07/31 12:21:01;;;;;;;5.03;2.10;;;24.60;99.90;;;;;;5070749;28;20587;-68
2022/07/31 12:23:40;;;;;;;5.20;1.70;;;25.10;99.90;;;;;;5072055;28;20147;-69
2022/07/31 12:26:07;;;;;;;3.38;1.65;;;25.30;99.90;;;;;;5072057;28;20060;-69
2022/07/31 12:28:32;;;;;;;3.65;1.88;;;25.40;99.90;;;;;;5071945;28;20021;-70
2022/07/31 12:30:59;;;;;;;2.50;1.30;;;25.90;99.90;;;;;;5070920;28;20039;-70
2022/07/31 12:33:26;;;;;;;3.40;1.35;;;26.60;99.90;;;;;;5071654;28;20140;-65
2022/07/31 12:35:53;;;;;;;3.88;1.38;;;26.20;99.90;;;;;;5072003;28;20527;-65
2022/07/31 12:38:23;;;;;;;4.70;1.65;;;26.20;99.90;;;;;;5072841;28;20032;-72
2022/07/31 12:40:49;;;;;;;3.72;1.30;;;26.40;99.90;;;;;;5072740;28;20538;-71
2022/07/31 12:43:14;;;;;;;4.75;1.55;;;25.90;99.90;;;;;;5072150;28;20037;-71
2022/07/31 12:45:40;;;;;;;6.10;1.70;;;25.50;99.90;;;;;;5074447;28;20465;-71
2022/07/31 12:48:06;;;;;;;4.47;1.48;;;25.30;99.90;;;;;;5075466;28;20081;-71
2022/07/31 12:50:33;;;;;;;4.50;1.30;;;25.60;99.90;;;;;;5057409;28;20092;-71
2022/07/31 12:53:03;;;;;;;3.97;1.58;;;25.60;99.90;;;;;;5075724;28;20055;-71
2022/07/31 12:55:31;;;;;;;1.77;1.40;;;25.60;99.90;;;;;;5074839;28;20028;-68
2022/07/31 12:57:57;;;;;;;3.15;1.58;;;25.90;99.90;;;;;;5075382;28;20021;-71
2022/07/31 13:00:25;;;;;;;26.88;1.70;;;26.20;99.90;;;;;;5071262;28;20078;-69
2022/07/31 13:02:55;;;;;;;2.88;1.30;;;25.60;99.90;;;;;;5062406;28;20411;-67
2022/07/31 13:05:22;;;;;;;2.08;1.20;;;26.10;99.90;;;;;;5069885;28;20024;-70
2022/07/31 13:07:48;;;;;;;3.80;1.10;;;26.10;99.90;;;;;;5072995;28;20020;-71